Thorpe, Iowa
Current Conditions -  °F | °C
As of 3:55 AM on Saturday 29 Nov 2014 (Local Time) from KMXO Reporting Station
Clear Clear  
Wind Chill: 24°   Ceiling: Unl
Heat Index: 30°   Visibility: 7mi
Dew Point: 30°   Wind: 6mph
Humidity: 100%   Direction: 140°SE
Pressure: 29.64"   Gusts: NA
Location:  42.4689°N, 91.4531°W
Report Text: KMXO 290955Z AUTO 14005KT 7SM CLR M01/M01 A2964 RMK AO2
Loading
Personal Weather Stations






























Interactive Weather Map New forecast layout! Learn more

10-Day Weather Forecast

Advertisements
Track Severe Weather on mobile